Weather at Kugel-Strong Airport

Public forecast

Using degrees Fahrenheit for public forecast. Weather courtesy of forecast.io.

Closest aviation weather report (METAR) to Kugel-Strong Airport

Closest report is Greeley–Weld County Airport, 14.4 nm (26.7 km) NNE. Retrieved 2020/10/21 10:56 UTC (1 hour ago):

KGXY 211056Z AUTO 03005KT 10SM CLR 02/M02 A2997 RMK AO2 SLP151 T00221017 FZRANO

Closest aviation forecast (TAF) to Kugel-Strong Airport

Closest forecast is Denver International Airport, 21.3 nm (39.5 km) S. Retrieved 2020/10/21 06:45 UTC (5 hours ago):

TAF KDEN 210543Z 2106/2212 17009KT P6SM SCT220 FM211400 25007KT P6SM FEW120 FM212000 11011KT P6SM FU SCT120 BKN220 FM220200 21011KT P6SM SCT120 BKN220